This is the latest recevied weather packets stored in our database for station/object M3SXA-5. If no packets are shown the sender has not sent any weather packets the latest 10 day(s).
| Time | Temp. | Humidity | Pressure | Rain* | Wind** | Luminosity | Snow |
|---|---|---|---|---|---|---|---|
| 1777776310 | 11.67° C | 93% | 1010.3 hPa | 0 mm | - | - | - |
| 1777772703 | 11.67° C | 93% | 1010.6 hPa | 0 mm | - | - | - |
| 1777771802 | 11.67° C | 93% | 1010.7 hPa | 0 mm | - | - | - |
| 1777770059 | 12.22° C | 93% | 1011 hPa | 0 mm | - | - | - |
| 1777769156 | 12.22° C | 93% | 1011.2 hPa | 0 mm | - | - | - |
| 1777766455 | 12.22° C | 92% | 1011.3 hPa | 0 mm | - | - | - |
| 1777760141 | 13.33° C | 94% | 1011.7 hPa | 0 mm | - | - | - |
| 1777756545 | 13.33° C | 94% | 1012.1 hPa | 1.02 mm | - | - | - |
| 1777752933 | 13.33° C | 93% | 1012.6 hPa | 1.27 mm | - | - | - |
| 1777751132 | 13.33° C | 93% | 1012.5 hPa | 0 mm | - | - | - |
| 1777749328 | 13.33° C | 93% | 1012.6 hPa | 0 mm | - | - | - |
| 1777745724 | 13.89° C | 91% | 1013.2 hPa | 2.29 mm | - | - | - |
| 1777741221 | 18.89° C | 57% | 1013.3 hPa | 0 mm | - | - | - |
| 1777740335 | 19.44° C | 55% | 1013.1 hPa | 0 mm | - | - | - |
| 1777736713 | 20° C | 53% | 1013.9 hPa | 0 mm | - | - | - |
| 1777734910 | 20.56° C | 50% | 1014.4 hPa | 0 mm | - | - | - |
| 1777726863 | 20° C | 49% | 1016.4 hPa | 0 mm | - | - | - |
| 1777721442 | 18.89° C | 50% | 1017.4 hPa | 0 mm | - | - | - |
| 1777713320 | 15.56° C | 69% | 1018.8 hPa | 0 mm | - | - | - |
| 1777712418 | 15° C | 71% | 1018.7 hPa | 0 mm | - | - | - |
| 1777702557 | 9.44° C | 90% | 1019.3 hPa | 0 mm | - | - | - |
| 1777699866 | 8.33° C | 91% | 1019.2 hPa | 0 mm | - | - | - |
| 1777698961 | 8.33° C | 92% | 1019.2 hPa | 0 mm | - | - | - |
| 1777689938 | 9.44° C | 87% | 1019.4 hPa | 0 mm | - | - | - |
| 1777687231 | 10° C | 86% | 1019.5 hPa | 0 mm | - | - | - |
* Rain latest hour (hover to see other rain measurements)
** Current wind speed in m/s (hover to see current wind gust speed)